Time;durP1;ratioP1;P1;durP2;ratioP2;P2;SDS_P1;SDS_P2;PMS_P1;PMS_P2;Temp;Humidity;BMP_temperature;BMP_pressure;BME280_temperature;BME280_humidity;BME280_pressure;Samples;Min_cycle;Max_cycle;Signal;HPM_P1;HPM_P2
2021/11/13 00:00:25;;;;;;;8.77;4.32;;;19.10;99.90;;;;;;4991476;28;20049;-82
2021/11/13 00:02:51;;;;;;;8.25;4.03;;;19.00;99.90;;;;;;4994782;28;20043;-82
2021/11/13 00:05:18;;;;;;;9.77;4.85;;;19.10;99.90;;;;;;4988916;28;20053;-82
2021/11/13 00:07:44;;;;;;;7.88;4.63;;;19.10;99.90;;;;;;4982787;28;20829;-83
2021/11/13 00:10:13;;;;;;;7.75;4.55;;;19.00;99.90;;;;;;4969137;28;20052;-82
2021/11/13 00:12:40;;;;;;;7.38;4.30;;;19.00;99.90;;;;;;5006586;28;20054;-83
2021/11/13 00:15:08;;;;;;;7.25;3.80;;;19.00;99.90;;;;;;4982207;28;20081;-83
2021/11/13 00:17:33;;;;;;;5.55;3.90;;;19.00;99.90;;;;;;4993061;28;20437;-83
2021/11/13 00:19:59;;;;;;;5.93;4.03;;;19.00;99.90;;;;;;5008920;28;20041;-85
2021/11/13 00:22:27;;;;;;;6.95;4.13;;;19.00;99.90;;;;;;4991935;28;20046;-83
2021/11/13 00:24:53;;;;;;;7.00;3.80;;;19.00;99.90;;;;;;5010052;28;20050;-83
2021/11/13 00:27:19;;;;;;;5.68;3.50;;;19.00;99.90;;;;;;5009032;28;20497;-83
2021/11/13 00:29:44;;;;;;;6.22;3.80;;;19.00;99.90;;;;;;4993778;28;20477;-83
2021/11/13 00:32:10;;;;;;;4.97;3.45;;;19.00;99.90;;;;;;4976462;28;20041;-83
2021/11/13 00:34:36;;;;;;;4.78;3.38;;;19.00;99.90;;;;;;4977421;28;20111;-83
2021/11/13 00:37:02;;;;;;;4.57;3.28;;;18.90;99.90;;;;;;4989705;28;20104;-85
2021/11/13 00:39:27;;;;;;;4.65;3.22;;;18.90;99.90;;;;;;4991201;28;20413;-83
2021/11/13 00:41:54;;;;;;;5.00;2.97;;;18.90;99.90;;;;;;4993480;28;20041;-83
2021/11/13 00:44:19;;;;;;;5.55;2.95;;;18.90;99.90;;;;;;4992322;28;20124;-83
2021/11/13 00:46:45;;;;;;;6.25;3.20;;;18.90;99.90;;;;;;4954854;28;20180;-83
2021/11/13 00:49:11;;;;;;;4.47;3.03;;;18.90;99.90;;;;;;4987183;28;20107;-83
2021/11/13 00:51:38;;;;;;;4.35;2.72;;;18.90;99.90;;;;;;4977162;28;20049;-82
2021/11/13 00:54:04;;;;;;;4.72;3.28;;;18.90;99.90;;;;;;5009125;28;20053;-85
2021/11/13 00:56:30;;;;;;;4.30;3.17;;;18.90;99.90;;;;;;5009190;28;20042;-82
2021/11/13 00:58:56;;;;;;;4.18;2.75;;;18.90;99.90;;;;;;5009288;28;20504;-83
2021/11/13 01:01:22;;;;;;;5.45;3.05;;;18.90;99.90;;;;;;4955425;28;20673;-83
2021/11/13 01:03:49;;;;;;;3.08;2.58;;;18.90;99.90;;;;;;4989750;28;20105;-82
2021/11/13 01:06:15;;;;;;;2.60;2.40;;;18.80;99.90;;;;;;5004475;28;20053;-83
2021/11/13 01:08:40;;;;;;;3.35;2.45;;;18.80;99.90;;;;;;4996620;28;20042;-83
2021/11/13 01:11:08;;;;;;;3.15;2.85;;;18.90;99.90;;;;;;5004917;28;20072;-83
2021/11/13 01:13:34;;;;;;;5.32;3.22;;;18.80;99.90;;;;;;4973285;28;20053;-82
2021/11/13 01:16:00;;;;;;;2.95;2.58;;;18.80;99.90;;;;;;5004627;28;20071;-82
2021/11/13 01:18:27;;;;;;;3.50;2.30;;;18.80;99.90;;;;;;5001087;28;20077;-83
2021/11/13 01:20:53;;;;;;;2.35;2.15;;;18.80;99.90;;;;;;4986131;28;20046;-82
2021/11/13 01:23:19;;;;;;;4.05;2.45;;;18.80;99.90;;;;;;5008329;28;20081;-82
2021/11/13 01:25:45;;;;;;;3.78;2.45;;;18.80;99.90;;;;;;5009178;28;20056;-82
2021/11/13 01:28:11;;;;;;;2.67;2.33;;;18.70;99.90;;;;;;5006929;28;20497;-82
2021/11/13 01:30:37;;;;;;;2.88;2.58;;;18.70;99.90;;;;;;5008981;28;20255;-82
2021/11/13 01:33:03;;;;;;;3.40;2.35;;;18.70;99.90;;;;;;4992366;28;20061;-81
2021/11/13 01:35:29;;;;;;;2.53;2.28;;;18.70;99.90;;;;;;4975930;28;20058;-81
2021/11/13 01:37:54;;;;;;;3.28;2.17;;;18.70;99.90;;;;;;5009108;28;20413;-81
2021/11/13 01:40:23;;;;;;;2.25;2.08;;;18.70;99.90;;;;;;5006902;28;20065;-84
2021/11/13 01:42:50;;;;;;;3.45;2.38;;;18.70;99.90;;;;;;5009078;28;20049;-81
2021/11/13 01:45:19;;;;;;;2.88;2.33;;;18.70;99.90;;;;;;4989374;28;20073;-81
2021/11/13 01:47:45;;;;;;;2.27;2.00;;;18.70;99.90;;;;;;4992686;28;20466;-82
2021/11/13 01:50:18;;;;;;;2.45;2.10;;;18.70;99.90;;;;;;5007810;28;20042;-82
2021/11/13 01:52:45;;;;;;;2.58;2.17;;;18.70;99.90;;;;;;4992686;28;20153;-82
2021/11/13 01:55:12;;;;;;;2.45;2.20;;;18.70;99.90;;;;;;4973367;28;20046;-82
2021/11/13 01:57:47;;;;;;;2.28;2.08;;;18.70;99.90;;;;;;4973017;28;20061;-81
2021/11/13 02:00:37;;;;;;;2.55;2.05;;;18.70;99.90;;;;;;4987271;28;20498;-82
2021/11/13 02:03:03;;;;;;;1.98;1.80;;;18.60;99.90;;;;;;4992599;28;20057;-82
2021/11/13 02:05:29;;;;;;;1.80;1.70;;;18.60;99.90;;;;;;4991493;28;20305;-82
2021/11/13 02:07:56;;;;;;;2.13;1.90;;;18.60;99.90;;;;;;4992140;28;20133;-81
2021/11/13 02:10:25;;;;;;;1.88;1.77;;;18.60;99.90;;;;;;4978961;28;20394;-82
2021/11/13 02:12:51;;;;;;;2.20;2.00;;;18.60;99.90;;;;;;4988512;28;20121;-82
2021/11/13 02:15:17;;;;;;;2.55;2.08;;;18.60;99.90;;;;;;4999649;28;20556;-82
2021/11/13 02:17:43;;;;;;;2.22;2.10;;;18.60;99.90;;;;;;4991859;28;20038;-81
2021/11/13 02:20:25;;;;;;;2.35;2.08;;;18.60;99.90;;;;;;5008181;28;20084;-83
2021/11/13 02:22:52;;;;;;;2.95;2.20;;;18.60;99.90;;;;;;4992243;28;20080;-82
2021/11/13 02:25:20;;;;;;;2.25;2.00;;;18.60;99.90;;;;;;5008572;28;20042;-81
2021/11/13 02:27:46;;;;;;;2.67;1.92;;;18.60;99.90;;;;;;4995292;28;20593;-82
2021/11/13 02:30:13;;;;;;;2.95;1.80;;;18.60;99.90;;;;;;4976170;28;20050;-83
2021/11/13 02:32:39;;;;;;;2.13;1.92;;;18.60;99.90;;;;;;5008119;28;20046;-81
2021/11/13 02:35:08;;;;;;;1.80;1.70;;;18.60;99.90;;;;;;4995525;28;20049;-82
2021/11/13 02:37:35;;;;;;;2.10;1.90;;;18.60;99.90;;;;;;4995212;28;20112;-82
2021/11/13 02:40:03;;;;;;;1.88;1.77;;;18.60;99.90;;;;;;4978374;28;20065;-82
2021/11/13 02:42:29;;;;;;;1.98;1.88;;;18.60;99.90;;;;;;4978866;28;20116;-82
2021/11/13 02:44:55;;;;;;;1.95;1.77;;;18.60;99.90;;;;;;5011329;28;20042;-82
2021/11/13 02:47:21;;;;;;;1.70;1.60;;;18.50;99.90;;;;;;4994792;28;20081;-83
2021/11/13 02:49:48;;;;;;;1.63;1.52;;;18.50;99.90;;;;;;4994376;28;20409;-80
2021/11/13 02:52:14;;;;;;;1.90;1.80;;;18.50;99.90;;;;;;4975828;28;20445;-84
2021/11/13 02:54:47;;;;;;;1.88;1.77;;;18.50;99.90;;;;;;5005958;28;20046;-81
2021/11/13 02:57:13;;;;;;;1.42;1.33;;;18.50;99.90;;;;;;4995074;28;20633;-84
2021/11/13 02:59:48;;;;;;;1.83;1.58;;;18.50;99.90;;;;;;5005641;28;20046;-80
2021/11/13 03:02:14;;;;;;;3.00;1.60;;;18.50;99.90;;;;;;4987740;28;20057;-84
2021/11/13 03:04:40;;;;;;;1.95;1.80;;;18.50;99.90;;;;;;4975640;28;20053;-82
2021/11/13 03:07:07;;;;;;;1.88;1.77;;;18.50;99.90;;;;;;4993452;28;20077;-81
2021/11/13 03:09:34;;;;;;;1.60;1.50;;;18.50;99.90;;;;;;4978146;28;20088;-83
2021/11/13 03:12:00;;;;;;;1.60;1.50;;;18.50;99.90;;;;;;5011595;28;20129;-83
2021/11/13 03:14:26;;;;;;;1.70;1.60;;;18.50;99.90;;;;;;4962238;28;20041;-83
2021/11/13 03:16:52;;;;;;;1.63;1.50;;;18.50;99.90;;;;;;4995082;28;20104;-83
2021/11/13 03:19:18;;;;;;;1.67;1.55;;;18.50;99.90;;;;;;4970377;28;20053;-83
2021/11/13 03:21:44;;;;;;;1.63;1.50;;;18.50;99.90;;;;;;4995058;28;20049;-82
2021/11/13 03:24:10;;;;;;;1.80;1.70;;;18.40;99.90;;;;;;4994526;28;20128;-82
2021/11/13 03:26:38;;;;;;;2.08;1.17;;;18.40;99.90;;;;;;4994320;28;20368;-82
2021/11/13 03:29:16;;;;;;;1.77;1.67;;;18.40;99.90;;;;;;4991987;28;20148;-83
2021/11/13 03:31:43;;;;;;;2.05;1.67;;;18.40;99.90;;;;;;4999382;28;20046;-83
2021/11/13 03:34:10;;;;;;;1.40;1.30;;;18.40;99.90;;;;;;4979109;28;20058;-82
2021/11/13 03:36:36;;;;;;;1.58;1.45;;;18.40;99.90;;;;;;5010113;28;20277;-83
2021/11/13 03:39:05;;;;;;;1.80;1.60;;;18.40;99.90;;;;;;4994068;28;20065;-83
2021/11/13 03:41:31;;;;;;;1.87;1.77;;;18.40;99.90;;;;;;5006955;28;20057;-83
2021/11/13 03:43:57;;;;;;;1.45;1.40;;;18.40;99.90;;;;;;4984476;28;20046;-83
2021/11/13 03:46:23;;;;;;;2.03;1.83;;;18.40;99.90;;;;;;4993744;28;20046;-83
2021/11/13 03:48:50;;;;;;;1.65;1.55;;;18.40;99.90;;;;;;4994646;28;20068;-83
2021/11/13 03:51:16;;;;;;;1.73;1.63;;;18.40;99.90;;;;;;4994343;28;20116;-84
2021/11/13 03:53:42;;;;;;;1.70;1.60;;;18.40;99.90;;;;;;4993782;28;20042;-83
2021/11/13 03:56:08;;;;;;;1.40;1.30;;;18.40;99.90;;;;;;4994338;28;20148;-83
2021/11/13 03:58:34;;;;;;;1.27;1.20;;;18.40;99.90;;;;;;4993498;28;20046;-82
2021/11/13 04:00:59;;;;;;;1.60;1.50;;;18.40;99.90;;;;;;5010241;28;20152;-81
2021/11/13 04:03:26;;;;;;;1.40;1.33;;;18.40;99.90;;;;;;4993562;28;20490;-82
2021/11/13 04:05:51;;;;;;;1.63;1.52;;;18.40;99.90;;;;;;4994161;28;20529;-82
2021/11/13 04:08:17;;;;;;;1.48;1.40;;;18.40;99.90;;;;;;4994230;28;20049;-82
2021/11/13 04:10:43;;;;;;;1.40;1.40;;;18.40;99.90;;;;;;4987853;28;20462;-81
2021/11/13 04:13:09;;;;;;;1.40;1.40;;;18.40;99.90;;;;;;4977885;28;20038;-82
2021/11/13 04:15:35;;;;;;;1.08;1.08;;;18.40;99.90;;;;;;5009581;28;20049;-83
2021/11/13 04:18:01;;;;;;;1.15;1.15;;;18.40;99.90;;;;;;4994007;28;20054;-81
2021/11/13 04:20:26;;;;;;;1.38;1.27;;;18.40;99.90;;;;;;4992957;28;20046;-82
2021/11/13 04:22:53;;;;;;;1.35;1.30;;;18.40;99.90;;;;;;5009371;28;20405;-82
2021/11/13 04:25:20;;;;;;;1.20;1.08;;;18.40;99.90;;;;;;4993851;28;20050;-82
2021/11/13 04:27:47;;;;;;;1.35;1.25;;;18.30;99.90;;;;;;4992894;28;20613;-81
2021/11/13 04:30:14;;;;;;;1.50;1.40;;;18.30;99.90;;;;;;5010180;28;20072;-83
2021/11/13 04:32:46;;;;;;;1.50;1.40;;;18.30;99.90;;;;;;4992382;28;20046;-85
2021/11/13 04:37:52;;;;;;;1.67;1.58;;;18.30;99.90;;;;;;5009140;28;20083;-82
2021/11/13 04:40:21;;;;;;;1.23;1.17;;;18.30;99.90;;;;;;4989692;28;20089;-84
2021/11/13 04:42:46;;;;;;;2.00;1.15;;;18.30;99.90;;;;;;5003123;28;20046;-83
2021/11/13 04:45:12;;;;;;;1.42;1.33;;;18.30;99.90;;;;;;4976345;28;20038;-81
2021/11/13 04:47:39;;;;;;;1.40;1.38;;;18.30;99.90;;;;;;5008784;28;20050;-82
2021/11/13 04:50:07;;;;;;;1.00;1.00;;;18.30;99.90;;;;;;4992842;28;20042;-82
2021/11/13 04:52:33;;;;;;;5.32;1.27;;;18.30;99.90;;;;;;4991103;28;20038;-83
2021/11/13 04:54:58;;;;;;;1.30;1.20;;;18.30;99.90;;;;;;5008888;28;20048;-82
2021/11/13 04:57:24;;;;;;;1.40;1.30;;;18.20;99.90;;;;;;5009014;28;20060;-86
2021/11/13 04:59:50;;;;;;;2.17;1.35;;;18.30;99.90;;;;;;4980610;28;20129;-81
2021/11/13 05:02:16;;;;;;;1.10;1.10;;;18.30;99.90;;;;;;5009038;28;20053;-81
2021/11/13 05:04:41;;;;;;;1.42;1.33;;;18.20;99.90;;;;;;4992727;28;20049;-81
2021/11/13 05:07:07;;;;;;;1.33;1.20;;;18.20;99.90;;;;;;4992756;28;20050;-81
2021/11/13 05:09:33;;;;;;;1.10;1.08;;;18.20;99.90;;;;;;4988351;28;20559;-81
2021/11/13 05:11:58;;;;;;;1.00;1.00;;;18.20;99.90;;;;;;4960498;28;20045;-80
2021/11/13 05:14:24;;;;;;;1.38;1.30;;;18.20;99.90;;;;;;5008961;28;20108;-84
2021/11/13 05:16:50;;;;;;;1.20;1.10;;;18.20;99.90;;;;;;4960349;28;20512;-81
2021/11/13 05:19:15;;;;;;;0.90;0.90;;;18.20;99.90;;;;;;4962756;28;20042;-82
2021/11/13 05:21:41;;;;;;;0.90;0.90;;;18.20;99.90;;;;;;4973630;28;20046;-82
2021/11/13 05:24:07;;;;;;;1.10;1.00;;;18.20;99.90;;;;;;5008992;28;20140;-82
2021/11/13 05:26:32;;;;;;;1.25;1.25;;;18.20;99.90;;;;;;4976095;28;20049;-82
2021/11/13 05:28:58;;;;;;;1.17;1.17;;;18.20;99.90;;;;;;5009155;28;20120;-82
2021/11/13 05:31:24;;;;;;;1.00;1.00;;;18.20;99.90;;;;;;4991252;28;20053;-83
2021/11/13 05:33:50;;;;;;;1.10;1.10;;;18.20;99.90;;;;;;4972676;28;20401;-83
2021/11/13 05:36:16;;;;;;;1.10;1.10;;;18.20;99.90;;;;;;4990934;28;20057;-82
2021/11/13 05:38:41;;;;;;;1.17;1.00;;;18.20;99.90;;;;;;4992137;28;20061;-82
2021/11/13 05:41:07;;;;;;;0.90;0.90;;;18.20;99.90;;;;;;5008845;28;20075;-83
2021/11/13 05:43:33;;;;;;;0.95;0.95;;;18.20;99.90;;;;;;5008132;28;20104;-82
2021/11/13 05:46:00;;;;;;;0.60;0.60;;;18.20;99.90;;;;;;4973312;28;20502;-82
2021/11/13 05:48:25;;;;;;;1.00;1.00;;;18.20;99.90;;;;;;5007275;28;20065;-82
2021/11/13 05:50:51;;;;;;;0.98;0.98;;;18.20;99.90;;;;;;5008623;28;20042;-83
2021/11/13 05:53:17;;;;;;;1.10;1.05;;;18.20;99.90;;;;;;4992128;28;20096;-82
2021/11/13 05:55:43;;;;;;;1.42;1.33;;;18.20;99.90;;;;;;4992023;28;20398;-82
2021/11/13 05:58:09;;;;;;;0.70;0.70;;;18.20;99.90;;;;;;4992357;28;20100;-83
2021/11/13 06:00:35;;;;;;;1.00;0.90;;;18.20;99.90;;;;;;4993068;28;20042;-82
2021/11/13 06:03:01;;;;;;;0.80;0.80;;;18.10;99.90;;;;;;5012736;28;20096;-82
2021/11/13 06:05:28;;;;;;;0.70;0.70;;;18.20;99.90;;;;;;4976603;28;20051;-82
2021/11/13 06:07:53;;;;;;;1.10;1.10;;;18.20;99.90;;;;;;5003301;28;20045;-83
2021/11/13 06:10:19;;;;;;;1.00;1.00;;;18.20;99.90;;;;;;4963923;28;20548;-83
2021/11/13 06:12:45;;;;;;;0.75;0.75;;;18.10;99.90;;;;;;5011498;28;20675;-83
2021/11/13 06:15:12;;;;;;;0.77;0.77;;;18.10;99.90;;;;;;4996009;28;20065;-83
2021/11/13 06:17:38;;;;;;;0.80;0.80;;;18.10;99.90;;;;;;5011790;28;20129;-82
2021/11/13 06:20:07;;;;;;;1.00;1.00;;;18.10;99.90;;;;;;4996107;28;20052;-83
2021/11/13 06:22:33;;;;;;;0.70;0.70;;;18.10;99.90;;;;;;4995504;28;20125;-83
2021/11/13 06:24:58;;;;;;;0.70;0.70;;;18.10;99.90;;;;;;5012221;28;20562;-83
2021/11/13 06:27:24;;;;;;;1.05;1.00;;;18.10;99.90;;;;;;4976475;28;20050;-83
2021/11/13 06:29:50;;;;;;;0.80;0.80;;;18.10;99.90;;;;;;5011064;28;20042;-82
2021/11/13 06:32:17;;;;;;;0.60;0.60;;;18.10;99.90;;;;;;4995419;28;20053;-83
2021/11/13 06:34:43;;;;;;;0.90;0.90;;;18.10;99.90;;;;;;5011552;28;20038;-82
2021/11/13 06:37:09;;;;;;;0.90;0.90;;;18.10;99.90;;;;;;4976335;28;20049;-83
2021/11/13 06:39:36;;;;;;;0.80;0.80;;;18.10;99.90;;;;;;4990504;28;20057;-82
2021/11/13 06:42:03;;;;;;;0.82;0.82;;;18.10;99.90;;;;;;4979218;28;20038;-83
2021/11/13 06:44:29;;;;;;;0.80;0.80;;;18.10;99.90;;;;;;4992655;28;20062;-82
2021/11/13 06:46:54;;;;;;;1.77;0.63;;;18.10;99.90;;;;;;4994949;28;20056;-82
2021/11/13 06:49:20;;;;;;;0.90;0.90;;;18.10;99.90;;;;;;4995388;28;20060;-82
2021/11/13 06:51:46;;;;;;;0.68;0.68;;;18.10;99.90;;;;;;4978446;28;20390;-81
2021/11/13 06:54:12;;;;;;;0.50;0.50;;;18.10;99.90;;;;;;4995305;28;20049;-82
2021/11/13 06:56:42;;;;;;;0.60;0.60;;;18.10;99.90;;;;;;4985319;28;20054;-82
2021/11/13 06:59:08;;;;;;;0.77;0.77;;;18.10;99.90;;;;;;4995219;28;20045;-82
2021/11/13 07:01:33;;;;;;;0.70;0.70;;;18.10;99.90;;;;;;4994692;28;20053;-84
2021/11/13 07:03:59;;;;;;;0.60;0.60;;;18.10;99.90;;;;;;4994919;28;20042;-82
2021/11/13 07:06:25;;;;;;;0.70;0.70;;;18.20;99.90;;;;;;5011674;28;20180;-82
2021/11/13 07:08:51;;;;;;;0.60;0.60;;;18.10;99.90;;;;;;5010145;28;20042;-82
2021/11/13 07:11:16;;;;;;;0.70;0.70;;;18.20;99.90;;;;;;4970788;28;20050;-84
2021/11/13 07:13:42;;;;;;;0.50;0.50;;;18.20;99.90;;;;;;4994479;28;20513;-83
2021/11/13 07:16:09;;;;;;;0.60;0.60;;;18.20;99.90;;;;;;5011165;28;20041;-83
2021/11/13 07:18:35;;;;;;;0.50;0.50;;;18.20;99.90;;;;;;4994727;28;20053;-85
2021/11/13 07:21:04;;;;;;;0.50;0.50;;;18.20;99.90;;;;;;5008432;28;20119;-84
2021/11/13 07:23:31;;;;;;;0.70;0.70;;;18.30;99.90;;;;;;4995137;28;20061;-82
2021/11/13 07:25:58;;;;;;;0.52;0.52;;;18.20;99.90;;;;;;4962188;28;20133;-82
2021/11/13 07:28:41;;;;;;;0.57;0.57;;;18.30;99.90;;;;;;4994826;28;20788;-82
2021/11/13 07:31:09;;;;;;;0.60;0.60;;;18.30;99.90;;;;;;4966945;28;20046;-82
2021/11/13 07:33:36;;;;;;;0.60;0.60;;;18.30;99.90;;;;;;4994754;28;20100;-84
2021/11/13 07:36:02;;;;;;;0.50;0.50;;;18.30;99.90;;;;;;4994331;28;20042;-82
2021/11/13 07:38:28;;;;;;;0.60;0.60;;;18.30;99.90;;;;;;4994538;28;20060;-83
2021/11/13 07:40:54;;;;;;;0.50;0.50;;;18.40;99.90;;;;;;5010592;28;20397;-82
2021/11/13 07:43:20;;;;;;;0.60;0.60;;;18.40;99.90;;;;;;4977909;28;20053;-82
2021/11/13 07:45:46;;;;;;;0.52;0.52;;;18.40;99.90;;;;;;4994103;28;20044;-82
2021/11/13 07:48:12;;;;;;;0.43;0.43;;;18.40;99.90;;;;;;5010666;28;20045;-82
2021/11/13 07:50:38;;;;;;;0.63;0.63;;;18.40;99.90;;;;;;4994109;28;20168;-85
2021/11/13 07:53:05;;;;;;;0.55;0.55;;;18.40;99.90;;;;;;4978189;28;20056;-82
2021/11/13 07:55:33;;;;;;;0.52;0.52;;;18.40;99.90;;;;;;4995149;28;20045;-82
2021/11/13 07:57:59;;;;;;;0.70;0.70;;;18.40;99.90;;;;;;4974755;28;20048;-82
2021/11/13 08:00:26;;;;;;;0.50;0.50;;;18.40;99.90;;;;;;5005625;28;20042;-83
2021/11/13 08:02:52;;;;;;;0.30;0.30;;;18.40;99.90;;;;;;4991009;28;20053;-83
2021/11/13 08:05:18;;;;;;;0.63;0.50;;;18.40;99.90;;;;;;4984614;28;20445;-83
2021/11/13 08:07:45;;;;;;;0.50;0.50;;;18.40;99.90;;;;;;4957798;28;20100;-85
2021/11/13 08:10:13;;;;;;;0.45;0.45;;;18.40;99.90;;;;;;4972415;28;20512;-83
2021/11/13 08:12:39;;;;;;;0.40;0.40;;;18.40;99.90;;;;;;4991260;28;20049;-86
2021/11/13 08:15:07;;;;;;;0.40;0.40;;;18.40;99.90;;;;;;5000236;28;20050;-84
2021/11/13 08:17:33;;;;;;;0.60;0.60;;;18.40;99.90;;;;;;5006124;28;20402;-83
2021/11/13 08:19:58;;;;;;;0.55;0.55;;;18.40;99.90;;;;;;4979593;28;20045;-83
2021/11/13 08:22:24;;;;;;;0.40;0.40;;;18.40;99.90;;;;;;4990042;28;20479;-85
2021/11/13 08:24:50;;;;;;;0.50;0.50;;;18.50;99.90;;;;;;4991578;28;20056;-84
2021/11/13 08:27:16;;;;;;;0.40;0.40;;;18.40;99.90;;;;;;4999491;28;20054;-84
2021/11/13 08:29:42;;;;;;;0.40;0.40;;;18.40;99.90;;;;;;4971824;28;20046;-85
2021/11/13 08:32:08;;;;;;;0.50;0.50;;;18.40;99.90;;;;;;4976342;28;20049;-85
2021/11/13 08:34:35;;;;;;;0.50;0.50;;;18.50;99.90;;;;;;4992915;28;20125;-84
2021/11/13 08:37:05;;;;;;;0.70;0.70;;;18.40;99.90;;;;;;4992531;28;20128;-84
2021/11/13 08:39:34;;;;;;;0.45;0.45;;;18.50;99.90;;;;;;4992662;28;20038;-83
2021/11/13 08:42:08;;;;;;;0.40;0.40;;;18.50;99.90;;;;;;4993128;28;20050;-83
2021/11/13 08:44:35;;;;;;;0.50;0.50;;;18.40;99.90;;;;;;5009181;28;20045;-83
2021/11/13 08:47:06;;;;;;;0.57;0.57;;;18.40;99.90;;;;;;4992882;28;20878;-81
2021/11/13 08:49:32;;;;;;;0.40;0.40;;;18.50;99.90;;;;;;5009466;28;20046;-83
2021/11/13 08:51:59;;;;;;;0.50;0.50;;;18.40;99.90;;;;;;4992235;28;20060;-83
2021/11/13 08:54:25;;;;;;;0.50;0.50;;;18.40;99.90;;;;;;4992618;28;20085;-84
2021/11/13 08:56:50;;;;;;;0.40;0.40;;;18.40;99.90;;;;;;5008482;28;20077;-84
2021/11/13 08:59:16;;;;;;;0.40;0.40;;;18.40;99.90;;;;;;4992721;28;20562;-84
2021/11/13 09:01:44;;;;;;;0.40;0.40;;;18.40;99.90;;;;;;4990900;28;20134;-83
2021/11/13 09:04:11;;;;;;;0.40;0.40;;;18.40;99.90;;;;;;4992401;28;20042;-83
2021/11/13 09:06:37;;;;;;;0.50;0.50;;;18.40;99.90;;;;;;5009028;28;20413;-83
2021/11/13 09:09:04;;;;;;;0.55;0.55;;;18.40;99.90;;;;;;4989948;28;20100;-83
2021/11/13 09:11:34;;;;;;;0.38;0.38;;;18.40;99.90;;;;;;4881199;28;20053;-83
2021/11/13 09:14:03;;;;;;;0.50;0.50;;;18.50;99.90;;;;;;4956057;28;20054;-85
2021/11/13 09:16:29;;;;;;;0.50;0.50;;;18.50;99.90;;;;;;4987788;28;20046;-86
2021/11/13 09:28:59;;;;;;;142.88;50.08;;;;;;;;;;5119377;27;20412;-86
2021/11/13 09:31:25;;;;;;;135.18;48.17;;;;;;;;;;5124370;27;20059;-88
2021/11/13 09:33:51;;;;;;;123.53;44.97;;;;;;;;;;5088851;28;20112;-87
2021/11/13 09:36:17;;;;;;;112.03;41.60;;;;;;;;;;5101175;27;20051;-86
2021/11/13 09:38:45;;;;;;;111.18;39.55;;;;;;;;;;5089129;28;20047;-88
2021/11/13 09:41:11;;;;;;;102.88;38.13;;;;;;;;;;5105508;28;20118;-88
2021/11/13 09:43:38;;;;;;;93.15;35.55;;;;;;;;;;5091315;28;20040;-87
2021/11/13 09:46:06;;;;;;;86.57;35.25;;;;;;;;;;4767939;27;100808;-88
2021/11/13 09:48:33;;;;;;;100.13;35.28;;;;;;;;;;5070192;28;20040;-86
2021/11/13 09:51:00;;;;;;;90.03;33.30;;;;;;;;;;5074733;28;20045;-88
2021/11/13 09:53:26;;;;;;;85.30;32.85;;;;;;;;;;5066149;28;20041;-88
2021/11/13 09:55:53;;;;;;;83.75;31.83;;;;;;;;;;5064455;28;20049;-88
2021/11/13 09:58:20;;;;;;;86.85;30.58;;;;;;;;;;5065443;28;20102;-89
2021/11/13 10:00:46;;;;;;;75.22;31.20;;;;;;;;;;5065485;28;20469;-89
2021/11/13 10:03:18;;;;;;;74.25;29.45;;;;;;;;;;5064668;28;20069;-86
2021/11/13 10:05:45;;;;;;;80.30;29.20;;;;;;;;;;5049480;28;20048;-87
2021/11/13 10:08:11;;;;;;;74.60;29.55;;;;;;;;;;5047478;28;20037;-88
2021/11/13 10:10:39;;;;;;;70.28;28.67;;;;;;;;;;5065810;28;20071;-86
2021/11/13 10:13:21;;;;;;;79.20;31.27;;;;;;;;;;5081771;28;20109;-88
2021/11/13 10:15:50;;;;;;;70.75;28.10;;;;;;;;;;5083981;28;20055;-95
2021/11/13 10:18:19;;;;;;;63.63;27.10;;;;;;;;;;5069658;28;20118;-91
2021/11/13 10:20:57;;;;;;;65.43;26.05;;;;;;;;;;5086173;28;20072;-94
2021/11/13 10:23:26;;;;;;;60.08;25.83;;;;;;;;;;5086511;28;20127;-95
2021/11/13 10:26:08;;;;;;;65.38;25.55;;;;;;;;;;5068151;28;20146;-88
2021/11/13 10:28:45;;;;;;;58.80;24.33;;;;;;;;;;5086266;28;20063;-94
2021/11/13 10:31:16;;;;;;;58.17;24.10;;;;;;;;;;5069147;28;20067;-95
2021/11/13 10:33:43;;;;;;;56.33;24.50;;;;;;;;;;5069463;28;20051;-95
2021/11/13 10:36:10;;;;;;;58.10;23.77;;;;;;;;;;5084950;28;20145;-93
2021/11/13 10:38:36;;;;;;;56.20;24.15;;;;;;;;;;5082614;28;20565;-95
2021/11/13 10:41:04;;;;;;;58.30;24.58;;;;;;;;;;5054996;28;20110;-95
2021/11/13 10:43:41;;;;;;;55.33;23.92;;;;;;;;;;5056339;28;20080;-96
2021/11/13 10:46:12;;;;;;;53.67;22.17;;;;;;;;;;5072279;28;20098;-95
2021/11/13 10:48:40;;;;;;;48.35;21.02;;;;;;;;;;5072885;28;20036;-95
2021/11/13 10:51:08;;;;;;;49.17;22.02;;;;;;;;;;5055368;28;20045;-96
2021/11/13 10:53:35;;;;;;;45.00;21.05;;;;;;;;;;5072506;28;20041;-95
2021/11/13 10:56:13;;;;;;;46.88;19.90;;;;;;;;;;5072542;28;20048;-92
2021/11/13 10:58:41;;;;;;;45.45;20.02;;;;;;;;;;5073197;28;20059;-95
2021/11/13 11:01:11;;;;;;;48.33;20.80;;;;;;;;;;5072107;28;20145;-93
2021/11/13 11:03:41;;;;;;;44.63;19.48;;;;;;;;;;5071223;28;20166;-93
2021/11/13 11:06:09;;;;;;;41.25;20.35;;;;;;;;;;5054908;28;20106;-94
2021/11/13 11:08:37;;;;;;;42.40;18.92;;;;;;;;;;5055471;28;20438;-92
2021/11/13 11:11:23;;;;;;;40.05;19.27;;;;;;;;;;5040941;28;20044;-94
2021/11/13 11:13:52;;;;;;;42.25;17.38;;;;;;;;;;5072617;28;20041;-95
2021/11/13 11:16:19;;;;;;;;;;;;;;;;;;5055456;28;20488;-95
2021/11/13 11:19:08;;;;;;;33.75;16.67;;;;;;;;;;5072167;28;19956;-94
2021/11/13 11:21:37;;;;;;;43.08;18.50;;;;;;;;;;5062722;28;20125;-92
2021/11/13 11:24:22;;;;;;;39.22;16.52;;;;;;;;;;5070302;28;20086;-91
2021/11/13 11:26:54;;;;;;;38.80;16.85;;;;;;;;;;5053654;28;20098;-88
2021/11/13 11:29:20;;;;;;;38.53;16.27;;;;;;;;;;5053236;28;20083;-89
2021/11/13 11:31:48;;;;;;;32.13;16.17;;;;;;;;;;5050098;28;20053;-87
2021/11/13 11:34:23;;;;;;;38.15;17.42;;;;;;;;;;5064677;28;20132;-89
2021/11/13 11:36:49;;;;;;;31.42;16.20;;;;;;;;;;5042553;28;21012;-88
2021/11/13 11:39:16;;;;;;;29.35;15.68;;;;;;;;;;5029986;28;20087;-90
2021/11/13 11:41:42;;;;;;;33.28;14.95;;;;;;;;;;5049416;28;20083;-87
2021/11/13 11:44:09;;;;;;;32.13;14.95;;;;;;;;;;5052727;28;20526;-92
2021/11/13 11:46:35;;;;;;;28.30;14.18;;;;;;;;;;5029293;28;20045;-88
2021/11/13 11:49:01;;;;;;;29.40;13.93;;;;;;;;;;5029068;28;20052;-88
2021/11/13 11:51:28;;;;;;;29.95;14.32;;;;;;;;;;5047186;28;20041;-90
2021/11/13 11:53:55;;;;;;;32.25;15.10;;;;;;;;;;5056311;28;20500;-87
2021/11/13 11:56:21;;;;;;;30.25;14.07;;;;;;;;;;5051240;28;20151;-86
2021/11/13 11:58:47;;;;;;;24.15;12.88;;;;;;;;;;5064060;28;20055;-86
2021/11/13 12:02:55;;;;;;;24.23;12.00;;;;;;;;;;5144227;27;20390;-85
2021/11/13 12:05:22;;;;;;;23.15;11.13;;;;;;;;;;5125307;27;20931;-87
2021/11/13 12:07:50;;;;;;;20.05;9.90;;;;;;;;;;5140001;27;20861;-87
2021/11/13 12:10:19;;;;;;;14.95;7.43;;;;;;;;;;5140081;27;20078;-86
2021/11/13 12:13:06;;;;;;;15.65;7.68;;;;;;;;;;5120623;28;20509;-86
2021/11/13 12:15:52;;;;;;;15.82;7.22;;;;;;;;;;5131209;27;20051;-87
2021/11/13 12:18:20;;;;;;;11.50;5.68;;;;;;;;;;5119792;27;20403;-87
2021/11/13 12:20:50;;;;;;;11.70;4.65;;;;;;;;;;5048172;27;20039;-87
2021/11/13 12:23:25;;;;;;;21.63;5.75;;;;;;;;;;5102032;28;20376;-90
2021/11/13 12:26:05;;;;;;;14.30;4.35;;;;;;;;;;5089897;28;20044;-86
2021/11/13 12:28:31;;;;;;;9.52;4.35;;;;;;;;;;5090092;28;20044;-85
2021/11/13 12:31:08;;;;;;;7.55;3.60;;;;;;;;;;5094920;28;20048;-93
2021/11/13 12:40:00;;;;;;;245.23;79.00;;;;;;;;;;4836265;27;20423;-87
2021/11/13 12:42:28;;;;;;;197.35;65.00;;;;;;;;;;4747585;28;116926;-84
2021/11/13 12:55:34;;;;;;;313.35;119.85;;;30.70;82.10;;;;;;4908415;27;77957;-85
2021/11/13 12:58:02;;;;;;;281.40;106.28;;;26.00;83.30;;;;;;5049001;28;20121;-84
2021/11/13 13:00:31;;;;;;;222.68;84.20;;;23.30;93.20;;;;;;4996434;28;20060;-83
2021/11/13 13:02:57;;;;;;;244.37;93.00;;;22.10;99.90;;;;;;5049764;28;20041;-83
2021/11/13 13:05:22;;;;;;;257.48;97.50;;;21.50;99.90;;;;;;5057118;28;20048;-85
2021/11/13 13:07:52;;;;;;;251.32;96.55;;;21.20;99.90;;;;;;5019626;28;20550;-85
2021/11/13 13:10:19;;;;;;;227.32;87.10;;;21.00;99.90;;;;;;5066351;28;20084;-88
2021/11/13 13:12:45;;;;;;;220.93;87.38;;;20.80;99.90;;;;;;5083291;28;20098;-89
2021/11/13 13:15:21;;;;;;;220.48;82.90;;;20.70;99.90;;;;;;5065741;28;20037;-85
2021/11/13 13:17:53;;;;;;;211.55;81.18;;;20.50;99.90;;;;;;5066331;28;20126;-84
2021/11/13 13:20:34;;;;;;;236.38;92.28;;;20.40;99.90;;;;;;5063598;28;20064;-85
2021/11/13 13:23:10;;;;;;;213.77;81.45;;;20.40;99.90;;;;;;5067751;28;20045;-85
2021/11/13 13:25:39;;;;;;;204.57;81.57;;;20.30;99.90;;;;;;5066705;28;20126;-86
2021/11/13 13:28:05;;;;;;;206.10;83.00;;;20.30;99.90;;;;;;5066347;28;20164;-85
2021/11/13 13:30:33;;;;;;;210.02;81.28;;;20.10;99.90;;;;;;5049978;28;20291;-86
2021/11/13 13:33:00;;;;;;;174.63;68.70;;;20.10;99.90;;;;;;5067524;28;20492;-85
2021/11/13 13:35:27;;;;;;;175.63;65.72;;;20.10;99.90;;;;;;5066125;28;20055;-86
2021/11/13 13:38:05;;;;;;;167.30;66.95;;;20.00;99.90;;;;;;5050421;28;20095;-86